createdAt,value
2017-04-26T00:00:45.599Z,66.79
2017-04-26T00:01:55.854Z,67.26
2017-04-26T00:03:05.477Z,67.36
2017-04-26T00:04:15.739Z,66.98
2017-04-26T00:05:25.998Z,66.79
2017-04-26T00:06:36.250Z,66.79
2017-04-26T00:07:46.507Z,66.88
2017-04-26T00:08:56.764Z,66.98
2017-04-26T00:10:07.023Z,67.07
2017-04-26T00:11:16.962Z,67.07
2017-04-26T00:12:26.900Z,67.07
2017-04-26T00:13:37.162Z,67.36
2017-04-26T00:14:47.113Z,67.64
2017-04-26T00:15:57.400Z,67.07
2017-04-26T00:17:07.342Z,67.45
2017-04-26T00:18:17.599Z,67.17
2017-04-26T00:19:27.859Z,67.64
2017-04-26T00:20:38.125Z,67.45
2017-04-26T00:21:48.384Z,66.88
2017-04-26T00:22:58.640Z,67.07
2017-04-26T00:24:08.897Z,67.07
2017-04-26T00:25:19.147Z,67.45
2017-04-26T00:26:29.399Z,67.07
2017-04-26T00:27:39.335Z,67.17
2017-04-26T00:28:49.589Z,67.64
2017-04-26T00:29:59.850Z,68.02
2017-04-26T00:31:09.793Z,67.93
2017-04-26T00:32:20.050Z,68.4
2017-04-26T00:33:30.300Z,68.3
2017-04-26T00:34:40.566Z,67.74
2017-04-26T00:35:50.818Z,67.93
2017-04-26T00:37:00.762Z,67.83
2017-04-26T00:38:11.027Z,67.64
2017-04-26T00:39:21.289Z,67.07
2017-04-26T00:40:31.545Z,67.93
2017-04-26T00:41:41.798Z,67.93
2017-04-26T00:42:52.048Z,67.74
2017-04-26T00:44:02.301Z,67.07
2017-04-26T00:45:12.563Z,66.69
2017-04-26T00:46:22.809Z,66.69
2017-04-26T00:47:33.064Z,67.45
2017-04-26T00:48:43.320Z,66.79
2017-04-26T00:49:53.577Z,66.79
2017-04-26T00:51:03.837Z,66.31
2017-04-26T00:52:14.096Z,66.88
2017-04-26T00:53:24.356Z,66.69
2017-04-26T00:54:34.299Z,66.31
2017-04-26T00:55:44.246Z,66.22
2017-04-26T00:56:54.507Z,66.31
2017-04-26T00:58:04.767Z,66.6
2017-04-26T00:59:15.023Z,65.75
2017-04-26T01:00:25.278Z,66.31
2017-04-26T01:01:35.531Z,66.13
2017-04-26T01:02:45.782Z,66.6
2017-04-26T01:03:55.726Z,65.84
2017-04-26T01:05:05.979Z,66.03
2017-04-26T01:06:16.234Z,65.75
2017-04-26T01:07:26.173Z,65.84
2017-04-26T01:08:36.112Z,65.66
2017-04-26T01:09:46.059Z,65.66
2017-04-26T01:10:56.310Z,65.94
2017-04-26T01:12:06.245Z,66.09
2017-04-26T01:13:16.501Z,66.03
2017-04-26T01:14:26.441Z,65.91
2017-04-26T01:15:36.699Z,66.38
2017-04-26T01:16:46.636Z,66.19
2017-04-26T01:17:56.892Z,66.19
2017-04-26T01:19:07.143Z,66
2017-04-26T01:20:17.402Z,65.81
2017-04-26T01:21:27.661Z,66.38
2017-04-26T01:22:37.927Z,66
2017-04-26T01:23:48.181Z,66.28
2017-04-26T01:24:58.125Z,65.81
2017-04-26T01:26:08.379Z,66.09
2017-04-26T01:27:18.630Z,66
2017-04-26T01:28:28.891Z,65.81
2017-04-26T01:29:39.149Z,65.72
2017-04-26T01:30:49.413Z,66.28
2017-04-26T01:31:59.665Z,66.47
2017-04-26T01:33:09.914Z,66.66
2017-04-26T01:34:19.538Z,66.47
2017-04-26T01:35:29.807Z,66.47
2017-04-26T01:36:40.072Z,67.41
2017-04-26T01:37:50.331Z,66.47
2017-04-26T01:39:00.273Z,66.19
2017-04-26T01:40:10.521Z,66.19
2017-04-26T01:41:20.776Z,66.09
2017-04-26T01:42:31.030Z,66.28
2017-04-26T01:43:41.295Z,66.28
2017-04-26T01:44:51.556Z,66
2017-04-26T01:46:01.824Z,66.19
2017-04-26T01:47:11.768Z,66.28
2017-04-26T01:48:22.017Z,66
2017-04-26T01:49:31.963Z,66
2017-04-26T01:50:42.226Z,66.47
2017-04-26T01:51:52.477Z,66.38
2017-04-26T01:53:02.727Z,66.19
2017-04-26T01:54:12.978Z,66.38
2017-04-26T01:55:23.235Z,65.81
2017-04-26T01:56:32.864Z,65.62
2017-04-26T01:57:43.126Z,65.91
2017-04-26T01:58:53.381Z,65.62
2017-04-26T02:00:03.319Z,65.81
2017-04-26T02:01:13.261Z,65.43
2017-04-26T02:02:23.515Z,64.58
2017-04-26T02:03:33.767Z,65.15
2017-04-26T02:04:44.023Z,65.05
2017-04-26T02:05:53.964Z,65.24
2017-04-26T02:07:04.222Z,64.48
2017-04-26T02:08:14.171Z,64.29
2017-04-26T02:09:24.432Z,64.29
2017-04-26T02:10:34.371Z,64.67
2017-04-26T02:11:44.659Z,64.77
2017-04-26T02:12:54.983Z,64.96
2017-04-26T02:14:05.233Z,64.67
2017-04-26T02:15:14.865Z,63.92
2017-04-26T02:16:25.119Z,63.64
2017-04-26T02:17:35.382Z,63.73
2017-04-26T02:18:45.638Z,63.26
2017-04-26T02:19:55.899Z,62.88
2017-04-26T02:21:05.845Z,63.16
2017-04-26T02:22:15.786Z,63.16
2017-04-26T02:23:26.046Z,63.64
2017-04-26T02:24:36.303Z,63.45
2017-04-26T02:25:46.561Z,63.45
2017-04-26T02:26:56.812Z,63.54
2017-04-26T02:28:06.441Z,63.35
2017-04-26T02:29:16.385Z,63.07
2017-04-26T02:30:26.643Z,62.5
2017-04-26T02:31:36.918Z,63.07
2017-04-26T02:32:47.176Z,63.16
2017-04-26T02:33:57.435Z,63.26
2017-04-26T02:35:07.682Z,62.59
2017-04-26T02:36:17.645Z,62.12
2017-04-26T02:37:27.580Z,61.74
2017-04-26T02:38:37.835Z,62.21
2017-04-26T02:39:48.090Z,61.65
2017-04-26T02:40:58.345Z,61.46
2017-04-26T02:42:08.288Z,62.21
2017-04-26T02:43:18.545Z,62.21
2017-04-26T02:44:28.796Z,61.93
2017-04-26T02:45:38.733Z,62.21
2017-04-26T02:46:48.988Z,61.93
2017-04-26T02:47:58.925Z,61.65
2017-04-26T02:49:09.180Z,62.31
2017-04-26T02:50:19.434Z,62.02
2017-04-26T02:51:29.687Z,62.12
2017-04-26T02:52:39.624Z,62.4
2017-04-26T02:53:49.882Z,62.4
2017-04-26T02:55:00.141Z,63.16
2017-04-26T02:56:10.389Z,62.5
2017-04-26T02:57:20.325Z,62.5
2017-04-26T02:58:30.576Z,62.02
2017-04-26T02:59:40.839Z,62.21
2017-04-26T03:00:51.089Z,62.69
2017-04-26T03:02:01.334Z,61.65
2017-04-26T03:03:11.587Z,61.93
2017-04-26T03:04:21.524Z,62.31
2017-04-26T03:05:31.775Z,61.65
2017-04-26T03:06:42.035Z,62.4
2017-04-26T03:07:51.982Z,62.37
2017-04-26T03:09:02.267Z,62.56
2017-04-26T03:10:12.519Z,62.12
2017-04-26T03:11:22.460Z,62.4
2017-04-26T03:12:32.709Z,62.59
2017-04-26T03:13:42.652Z,62.69
2017-04-26T03:14:52.909Z,62.21
2017-04-26T03:16:03.161Z,62.47
2017-04-26T03:17:13.692Z,62.56
2017-04-26T03:18:23.625Z,62.37
2017-04-26T03:19:33.882Z,63.13
2017-04-26T03:20:44.139Z,62.37
2017-04-26T03:21:54.113Z,62.66
2017-04-26T03:23:04.364Z,62.18
2017-04-26T03:24:14.302Z,62.75
2017-04-26T03:25:24.248Z,62.37
2017-04-26T03:26:34.509Z,63.79
2017-04-26T03:27:44.768Z,63.32
2017-04-26T03:28:55.042Z,62.28
2017-04-26T03:30:05.299Z,62.47
2017-04-26T03:31:14.926Z,62.47
2017-04-26T03:32:25.179Z,63.32
2017-04-26T03:33:35.437Z,63.6
2017-04-26T03:34:45.691Z,62.94
2017-04-26T03:35:55.946Z,63.32
2017-04-26T03:37:05.888Z,62.47
2017-04-26T03:38:16.151Z,62.28
2017-04-26T03:39:26.409Z,62.47
2017-04-26T03:40:36.351Z,61.8
2017-04-26T03:41:46.608Z,62.47
2017-04-26T03:42:56.866Z,61.99
2017-04-26T03:44:07.119Z,62.09
2017-04-26T03:45:17.404Z,62.09
2017-04-26T03:46:27.348Z,61.43
2017-04-26T03:47:37.596Z,61.52
2017-04-26T03:48:47.848Z,61.33
2017-04-26T03:49:58.104Z,61.43
2017-04-26T03:51:08.362Z,61.36
2017-04-26T03:52:18.300Z,61.36
2017-04-26T03:53:28.247Z,61.27
2017-04-26T03:54:38.502Z,61.27
2017-04-26T03:55:48.756Z,60.61
2017-04-26T03:56:59.013Z,60.52
2017-04-26T03:58:09.267Z,60.61
2017-04-26T03:59:19.206Z,60.61
2017-04-26T04:00:29.462Z,60.33
2017-04-26T04:01:39.410Z,60.42
2017-04-26T04:02:49.661Z,59.85
2017-04-26T04:03:59.909Z,59.57
2017-04-26T04:05:10.167Z,59.38
2017-04-26T04:06:20.107Z,59.47
2017-04-26T04:07:30.353Z,59.95
2017-04-26T04:08:40.606Z,59.85
2017-04-26T04:09:50.868Z,60.52
2017-04-26T04:11:01.141Z,60.23
2017-04-26T04:12:11.424Z,60.8
2017-04-26T04:13:21.676Z,61.08
2017-04-26T04:14:31.930Z,60.8
2017-04-26T04:15:41.867Z,60.89
2017-04-26T04:16:52.121Z,60.23
2017-04-26T04:18:02.382Z,60.52
2017-04-26T04:19:12.641Z,60.04
2017-04-26T04:20:22.916Z,60.14
2017-04-26T04:21:33.169Z,59.47
2017-04-26T04:22:43.426Z,59.66
2017-04-26T04:23:53.675Z,59.85
2017-04-26T04:25:03.925Z,59.57
2017-04-26T04:26:13.865Z,59.47
2017-04-26T04:27:24.122Z,59.95
2017-04-26T04:28:34.385Z,59.38
2017-04-26T04:29:44.324Z,59.38
2017-04-26T04:30:54.270Z,59.66
2017-04-26T04:32:04.533Z,59.47
2017-04-26T04:33:14.466Z,59.57
2017-04-26T04:34:24.408Z,59.66
2017-04-26T04:35:34.349Z,59.57
2017-04-26T04:36:44.610Z,59.47
2017-04-26T04:37:54.862Z,59.85
2017-04-26T04:39:05.115Z,59.47
2017-04-26T04:40:15.056Z,59.85
2017-04-26T04:41:24.684Z,59.47
2017-04-26T04:42:34.936Z,59.95
2017-04-26T04:43:45.190Z,59.38
2017-04-26T04:44:55.454Z,59.57
2017-04-26T04:46:05.400Z,59.85
2017-04-26T04:47:15.350Z,59.28
2017-04-26T04:48:25.600Z,59.47
2017-04-26T04:49:35.858Z,59.09
2017-04-26T04:50:45.793Z,59.09
2017-04-26T04:51:55.732Z,58.91
2017-04-26T04:53:06.010Z,58.53
2017-04-26T04:54:16.267Z,58.53
2017-04-26T04:55:26.520Z,59
2017-04-26T04:56:36.777Z,58.91
2017-04-26T04:57:46.715Z,58.72
2017-04-26T04:58:56.968Z,58.81
2017-04-26T05:00:07.225Z,58.34
2017-04-26T05:01:17.476Z,58.91
2017-04-26T05:02:27.731Z,59.47
2017-04-26T05:03:37.994Z,59.47
2017-04-26T05:04:48.259Z,59.76
2017-04-26T05:05:58.513Z,59.85
2017-04-26T05:07:08.455Z,59.47
2017-04-26T05:08:18.718Z,59.47
2017-04-26T05:09:28.977Z,59.38
2017-04-26T05:10:39.231Z,58.91
2017-04-26T05:11:49.484Z,58.44
2017-04-26T05:12:59.739Z,58.53
2017-04-26T05:14:09.674Z,58.91
2017-04-26T05:15:19.928Z,59.09
2017-04-26T05:16:30.180Z,58.81
2017-04-26T05:17:40.440Z,58.72
2017-04-26T05:18:50.693Z,58.06
2017-04-26T05:20:00.956Z,58.06
2017-04-26T05:21:10.597Z,58.18
2017-04-26T05:22:20.535Z,57.99
2017-04-26T05:23:30.789Z,58.28
2017-04-26T05:24:41.039Z,58.18
2017-04-26T05:25:50.980Z,57.99
2017-04-26T05:27:01.239Z,58.37
2017-04-26T05:28:11.490Z,58.18
2017-04-26T05:29:21.756Z,57.71
2017-04-26T05:30:32.011Z,58.09
2017-04-26T05:31:42.268Z,58.84
2017-04-26T05:32:52.519Z,57.9
2017-04-26T05:34:02.786Z,57.33
2017-04-26T05:35:13.048Z,57.04
2017-04-26T05:36:23.305Z,57.42
2017-04-26T05:37:33.560Z,58.56
2017-04-26T05:38:43.815Z,58.09
2017-04-26T05:39:53.757Z,58.37
2017-04-26T05:41:04.022Z,58.18
2017-04-26T05:42:14.273Z,58.18
2017-04-26T05:43:24.221Z,58.28
2017-04-26T05:44:34.496Z,58.65
2017-04-26T05:45:44.758Z,58.37
2017-04-26T05:46:55.018Z,58.09
2017-04-26T05:48:05.280Z,58.18
2017-04-26T05:49:15.228Z,57.99
2017-04-26T05:50:25.481Z,57.8
2017-04-26T05:51:35.438Z,58.65
2017-04-26T05:52:45.686Z,58.75
2017-04-26T05:53:55.945Z,58.47
2017-04-26T05:55:05.888Z,58.94
2017-04-26T05:56:16.151Z,58.65
2017-04-26T05:57:26.407Z,58.75
2017-04-26T05:58:36.346Z,58.65
2017-04-26T05:59:46.605Z,58.56
2017-04-26T06:00:56.861Z,58.47
2017-04-26T06:02:06.493Z,58.84
2017-04-26T06:03:16.759Z,57.9
2017-04-26T06:04:27.013Z,58.56
2017-04-26T06:05:36.951Z,58.47
2017-04-26T06:06:47.217Z,58.75
2017-04-26T06:07:57.466Z,59.79
2017-04-26T06:09:07.723Z,59.88
2017-04-26T06:10:17.670Z,60.55
2017-04-26T06:11:27.930Z,60.07
2017-04-26T06:12:38.189Z,58.94
2017-04-26T06:13:48.133Z,58.65
2017-04-26T06:14:58.397Z,58.65
2017-04-26T06:16:08.334Z,58.37
2017-04-26T06:17:18.283Z,57.8
2017-04-26T06:18:28.544Z,57.14
2017-04-26T06:19:38.795Z,57.14
2017-04-26T06:20:49.047Z,56.57
2017-04-26T06:21:59.314Z,56.76
2017-04-26T06:23:09.575Z,58.37
2017-04-26T06:24:19.517Z,57.42
2017-04-26T06:25:29.796Z,58.09
2017-04-26T06:26:40.053Z,58.28
2017-04-26T06:27:50.345Z,57.9
2017-04-26T06:29:00.603Z,57.52
2017-04-26T06:30:10.968Z,56.6
2017-04-26T06:31:21.286Z,56.85
2017-04-26T06:32:31.543Z,58.65
2017-04-26T06:33:41.808Z,58.21
2017-04-26T06:34:52.063Z,58.21
2017-04-26T06:36:02.323Z,58.21
2017-04-26T06:37:12.265Z,56.88
2017-04-26T06:38:22.203Z,56.03
2017-04-26T06:39:32.466Z,55.56
2017-04-26T06:40:42.718Z,55.65
2017-04-26T06:41:52.979Z,57.07
2017-04-26T06:43:03.234Z,55.84
2017-04-26T06:44:13.486Z,56.7
2017-04-26T06:45:23.435Z,57.35
2017-04-26T06:46:33.692Z,55.56
2017-04-26T06:47:43.632Z,55.75
2017-04-26T06:48:53.886Z,55.46
2017-04-26T06:50:04.139Z,54.33
2017-04-26T06:51:14.080Z,54.33
2017-04-26T06:52:24.018Z,55.18
2017-04-26T06:53:34.274Z,56.6
2017-04-26T06:54:44.523Z,56.6
2017-04-26T06:55:54.775Z,57.07
2017-04-26T06:57:05.038Z,57.35
2017-04-26T06:58:15.292Z,57.35
2017-04-26T06:59:25.549Z,56.13
2017-04-26T07:00:35.488Z,56.03
2017-04-26T07:01:45.436Z,56.6
2017-04-26T07:02:55.688Z,57.07
2017-04-26T07:04:05.632Z,56.13
2017-04-26T07:05:15.892Z,54.9
2017-04-26T07:06:25.831Z,54.33
2017-04-26T07:07:36.085Z,54.33
2017-04-26T07:08:46.386Z,54.71
2017-04-26T07:09:56.649Z,53.41
2017-04-26T07:11:06.910Z,53.78
2017-04-26T07:12:16.537Z,53.5
2017-04-26T07:13:26.796Z,53.59
2017-04-26T07:14:37.064Z,53.88
2017-04-26T07:15:47.327Z,53.97
2017-04-26T07:16:57.581Z,53.22
2017-04-26T07:18:07.839Z,52.94
2017-04-26T07:19:17.776Z,53.03
2017-04-26T07:20:27.715Z,55.3
2017-04-26T07:21:37.660Z,55.21
2017-04-26T07:22:47.919Z,54.26
2017-04-26T07:23:58.174Z,55.58
2017-04-26T07:25:08.429Z,55.4
2017-04-26T07:26:18.690Z,55.4
2017-04-26T07:27:28.631Z,54.83
2017-04-26T07:28:38.922Z,55.02
2017-04-26T07:29:49.171Z,53.97
2017-04-26T07:30:59.434Z,53.97
2017-04-26T07:32:09.434Z,53.22
2017-04-26T07:33:19.372Z,53.69
2017-04-26T07:34:29.645Z,54.45
2017-04-26T07:35:39.902Z,53.41
2017-04-26T07:36:50.158Z,54.26
2017-04-26T07:38:00.418Z,55.77
2017-04-26T07:39:10.360Z,54.35
2017-04-26T07:40:19.997Z,54.45
2017-04-26T07:41:29.943Z,53.5
2017-04-26T07:42:40.192Z,53.97
2017-04-26T07:43:50.447Z,53.97
2017-04-26T07:45:00.388Z,53.13
2017-04-26T07:46:10.653Z,54.07
2017-04-26T07:47:20.286Z,53.69
2017-04-26T07:48:30.542Z,53.59
2017-04-26T07:49:40.799Z,54.07
2017-04-26T07:50:51.055Z,54.07
2017-04-26T07:52:00.998Z,53.41
2017-04-26T07:53:10.934Z,54.16
2017-04-26T07:54:21.193Z,53.59
2017-04-26T07:55:31.446Z,53.5
2017-04-26T07:56:41.703Z,53.78
2017-04-26T07:57:51.954Z,52.94
2017-04-26T07:59:02.204Z,52.94
2017-04-26T08:00:12.459Z,53.22
2017-04-26T08:01:22.406Z,53.03
2017-04-26T08:02:32.686Z,53.15
2017-04-26T08:03:43.028Z,53.91
2017-04-26T08:04:53.287Z,53.81
2017-04-26T08:06:03.549Z,53.63
2017-04-26T08:07:13.807Z,54.67
2017-04-26T08:08:23.746Z,54.47
2017-04-26T08:09:34.002Z,52.37
2017-04-26T08:10:44.254Z,53.15
2017-04-26T08:11:54.509Z,53.91
2017-04-26T08:13:04.766Z,53.44
2017-04-26T08:14:14.704Z,52.87
2017-04-26T08:15:24.651Z,52.29
2017-04-26T08:16:34.594Z,52.77
2017-04-26T08:17:44.845Z,52.48
2017-04-26T08:18:55.101Z,53.25
2017-04-26T08:20:05.357Z,52.77
2017-04-26T08:21:15.300Z,52.39
2017-04-26T08:22:25.563Z,52.11
2017-04-26T08:23:35.542Z,52.29
2017-04-26T08:24:45.484Z,51.73
2017-04-26T08:25:55.734Z,52.96
2017-04-26T08:27:05.990Z,52.96
2017-04-26T08:28:15.634Z,53.06
2017-04-26T08:29:25.306Z,52.11
2017-04-26T08:30:35.566Z,52.11
2017-04-26T08:31:45.818Z,52.96
2017-04-26T08:32:56.077Z,53.15
2017-04-26T08:34:06.333Z,52.39
2017-04-26T08:35:16.591Z,52.87
2017-04-26T08:36:26.849Z,53.06
2017-04-26T08:37:37.109Z,53.06
2017-04-26T08:38:47.404Z,51.16
2017-04-26T08:39:57.688Z,50.88
2017-04-26T08:41:07.946Z,50.59
2017-04-26T08:42:17.269Z,50.21
2017-04-26T08:43:27.518Z,50.12
2017-04-26T08:44:37.775Z,50.52
2017-04-26T08:45:48.032Z,52.04
2017-04-26T08:46:58.293Z,50.52
2017-04-26T08:48:08.544Z,49.67
2017-04-26T08:49:18.798Z,50.81
2017-04-26T08:50:29.053Z,52.04
2017-04-26T08:51:39.312Z,51.66
2017-04-26T08:52:49.567Z,51.95
2017-04-26T08:53:59.825Z,51.76
2017-04-26T08:55:10.082Z,50.9
2017-04-26T08:56:20.020Z,51.28
2017-04-26T08:57:29.969Z,50.24
2017-04-26T08:58:39.910Z,50.52
2017-04-26T08:59:50.171Z,50.05
2017-04-26T09:01:00.429Z,50.62
2017-04-26T09:02:10.688Z,50.81
2017-04-26T09:03:20.319Z,52.04
2017-04-26T09:04:29.948Z,52.33
2017-04-26T09:05:40.206Z,50.71
2017-04-26T09:06:50.463Z,48.82
2017-04-26T09:08:00.407Z,49.1
2017-04-26T09:09:10.351Z,50.05
2017-04-26T09:10:20.291Z,49.69
2017-04-26T09:11:30.546Z,48.72
2017-04-26T09:12:40.830Z,50.15
2017-04-26T09:13:51.086Z,48.46
2017-04-26T09:15:01.347Z,49.48
2017-04-26T09:16:11.603Z,49.13
2017-04-26T09:17:21.868Z,48.84
2017-04-26T09:18:32.128Z,48.84
2017-04-26T09:19:44.388Z,49.03
2017-04-26T09:20:54.645Z,48.56
2017-04-26T09:22:04.905Z,49.69
2017-04-26T09:23:14.890Z,48.75
2017-04-26T09:24:24.830Z,48.75
2017-04-26T09:25:37.395Z,49.51
2017-04-26T09:26:47.652Z,49.32
2017-04-26T09:27:57.594Z,49.69
2017-04-26T09:29:07.857Z,49.6
2017-04-26T09:30:18.117Z,49.51
2017-04-26T09:31:28.053Z,49.69
2017-04-26T09:32:38.317Z,49.69
2017-04-26T09:33:48.567Z,49.79
2017-04-26T09:34:58.823Z,49.13
2017-04-26T09:36:09.084Z,50.74
2017-04-26T09:37:19.345Z,50.26
2017-04-26T09:38:29.615Z,50.26
2017-04-26T09:39:39.872Z,50.74
2017-04-26T09:40:50.138Z,48.75
2017-04-26T09:42:00.406Z,49.32
2017-04-26T09:43:10.670Z,49.79
2017-04-26T09:44:20.634Z,49.41
2017-04-26T09:45:30.574Z,48.84
2017-04-26T09:46:40.520Z,48.27
2017-04-26T09:47:50.777Z,48.75
2017-04-26T09:49:01.032Z,49.41
2017-04-26T09:50:11.303Z,49.22
2017-04-26T09:51:21.557Z,49.03
2017-04-26T09:52:31.499Z,48.65
2017-04-26T09:53:41.757Z,48.65
2017-04-26T09:54:52.005Z,47.99
2017-04-26T09:56:02.257Z,47.89
2017-04-26T09:57:12.203Z,46.75
2017-04-26T09:58:22.146Z,46.85
2017-04-26T09:59:32.404Z,47.42
2017-04-26T10:00:42.657Z,46.09
2017-04-26T10:01:52.916Z,44.95
2017-04-26T10:03:03.171Z,46
2017-04-26T10:04:13.112Z,45.71
2017-04-26T10:05:23.367Z,45.81
2017-04-26T10:06:33.308Z,45.17
2017-04-26T10:07:43.563Z,46.09
2017-04-26T10:08:53.816Z,46.94
2017-04-26T10:10:04.069Z,47.42
2017-04-26T10:11:13.701Z,45.9
2017-04-26T10:12:23.642Z,44.85
2017-04-26T10:13:33.903Z,43.62
2017-04-26T10:15:05.779Z,46.94
2017-04-26T10:16:16.072Z,45.73
2017-04-26T10:17:26.335Z,43.55
2017-04-26T10:18:36.595Z,44.88
2017-04-26T10:19:46.542Z,48.49
2017-04-26T10:20:56.799Z,47.82
2017-04-26T10:22:07.063Z,45.17
2017-04-26T10:23:17.004Z,44.6
2017-04-26T10:24:27.262Z,43.84
2017-04-26T10:25:37.512Z,43.84
2017-04-26T10:26:47.458Z,45.64
2017-04-26T10:28:08.360Z,44.5
2017-04-26T10:30:06.325Z,44.5
2017-04-26T10:31:15.964Z,44.02
2017-04-26T10:32:26.227Z,43.46
2017-04-26T10:33:36.482Z,45.26
2017-04-26T10:34:48.094Z,45.17
2017-04-26T10:35:58.359Z,44.88
2017-04-26T10:37:09.075Z,44.69
2017-04-26T10:38:19.331Z,43.84
2017-04-26T10:39:29.276Z,44.79
2017-04-26T10:40:39.538Z,43.08
2017-04-26T10:41:49.794Z,43.55
2017-04-26T10:43:00.055Z,43.36
2017-04-26T10:44:10.002Z,44.12
2017-04-26T10:45:20.269Z,42.98
2017-04-26T10:46:30.529Z,43.65
2017-04-26T10:47:40.786Z,45.54
2017-04-26T10:48:50.727Z,45.64
2017-04-26T10:50:00.984Z,47.25
2017-04-26T10:51:11.240Z,45.73
2017-04-26T10:52:20.870Z,43.65
2017-04-26T10:53:31.127Z,44.5
2017-04-26T10:54:41.381Z,46.4
2017-04-26T10:55:51.637Z,43.08
2017-04-26T10:57:01.894Z,44.79
2017-04-26T10:58:12.154Z,44.4
2017-04-26T10:59:22.414Z,44.34
2017-04-26T11:00:32.693Z,44.53
2017-04-26T11:01:42.960Z,43.67
2017-04-26T11:02:52.908Z,43.67
2017-04-26T11:04:03.163Z,42.91
2017-04-26T11:05:13.415Z,41.89
2017-04-26T11:06:23.360Z,41.6
2017-04-26T11:07:33.300Z,41.58
2017-04-26T11:08:43.557Z,41.77
2017-04-26T11:09:53.820Z,42.15
2017-04-26T11:11:04.076Z,41.3
2017-04-26T11:12:14.023Z,41.96
2017-04-26T11:13:24.002Z,43.38
2017-04-26T11:14:34.261Z,43.21
2017-04-26T11:15:44.519Z,40.56
2017-04-26T11:16:54.776Z,40.08
2017-04-26T11:18:05.030Z,40.46
2017-04-26T11:19:14.977Z,40.48
2017-04-26T11:20:25.235Z,39.36
2017-04-26T11:21:35.494Z,36.79
2017-04-26T11:22:47.302Z,36.32
2017-04-26T11:24:01.622Z,37.65
2017-04-26T11:25:11.571Z,37.86
2017-04-26T11:26:21.832Z,36.33
2017-04-26T11:27:31.778Z,36.32
2017-04-26T11:28:42.050Z,35.65
2017-04-26T11:29:52.313Z,35.86
2017-04-26T11:31:02.574Z,35.78
2017-04-26T11:32:12.837Z,34.18
2017-04-26T11:33:22.799Z,33.82
2017-04-26T11:34:33.067Z,33.63
2017-04-26T11:35:43.354Z,33.53
2017-04-26T11:36:53.626Z,33.82
2017-04-26T11:38:03.900Z,32.95
2017-04-26T11:39:13.857Z,33.99
2017-04-26T11:40:24.122Z,34.3
2017-04-26T11:41:34.389Z,32.68
2017-04-26T11:42:44.346Z,32.79
2017-04-26T11:43:54.622Z,31.55
2017-04-26T11:45:04.893Z,30.02
2017-04-26T11:46:15.166Z,30.02
2017-04-26T11:47:25.436Z,29.56
2017-04-26T11:48:35.409Z,29.93
2017-04-26T11:49:45.377Z,30.21
2017-04-26T11:50:55.339Z,30.52
2017-04-26T11:52:05.299Z,31.29
2017-04-26T11:53:15.581Z,29.3
2017-04-26T11:54:25.852Z,27.22
2017-04-26T11:55:36.130Z,27.87
2017-04-26T11:56:46.417Z,29.89
2017-04-26T11:57:56.692Z,30.88
2017-04-26T11:59:06.969Z,31.01
2017-04-26T12:00:16.923Z,27.58
2017-04-26T12:01:26.890Z,26.43
2017-04-26T12:02:37.168Z,25.19
2017-04-26T12:03:47.440Z,24.91
2017-04-26T12:04:57.716Z,25.67
2017-04-26T12:06:07.986Z,25.97
2017-04-26T12:07:18.265Z,24.82
2017-04-26T12:08:28.538Z,26.23
2017-04-26T12:09:38.811Z,26.25
2017-04-26T12:10:48.771Z,23.75
2017-04-26T12:11:58.733Z,23.74
2017-04-26T12:13:08.694Z,23.93
2017-04-26T12:14:18.651Z,23.36
2017-04-26T12:15:28.626Z,23.91
2017-04-26T12:16:38.901Z,24.48
2017-04-26T12:17:49.183Z,23.9
2017-04-26T12:18:59.462Z,26.19
2017-04-26T12:20:09.426Z,26.19
2017-04-26T12:21:19.705Z,24.74
2017-04-26T12:22:29.980Z,24.84
2017-04-26T12:23:40.265Z,24.74
2017-04-26T12:24:50.224Z,27.82
2017-04-26T12:26:00.190Z,24.58
2017-04-26T12:27:10.189Z,23.9
2017-04-26T12:28:20.154Z,25.73
2017-04-26T12:29:30.431Z,25.84
2017-04-26T12:30:40.709Z,25.96
2017-04-26T12:31:50.982Z,24.63
2017-04-26T12:33:01.270Z,24.26
2017-04-26T12:34:10.920Z,21.88
2017-04-26T12:35:20.890Z,21.88
2017-04-26T12:36:30.852Z,20.91
2017-04-26T12:37:40.818Z,22.24
2017-04-26T12:38:50.784Z,22.99
2017-04-26T12:40:01.065Z,22.03
2017-04-26T12:41:11.350Z,20.97
2017-04-26T12:42:21.621Z,21.83
2017-04-26T12:43:31.894Z,22.21
2017-04-26T12:44:42.170Z,24.32
2017-04-26T12:45:52.450Z,23.38
2017-04-26T12:47:02.722Z,22.64
2017-04-26T12:48:12.683Z,21.39
2017-04-26T12:49:22.657Z,22.15
2017-04-26T12:50:32.963Z,24.16
2017-04-26T12:51:43.251Z,22.75
2017-04-26T12:52:53.529Z,21.32
2017-04-26T12:54:03.815Z,20.06
2017-04-26T12:55:13.785Z,21.21
2017-04-26T12:56:23.759Z,20.45
2017-04-26T12:57:34.047Z,21.12
2017-04-26T12:58:44.333Z,20.47
2017-04-26T12:59:54.297Z,22.95
2017-04-26T13:01:04.576Z,19.7
2017-04-26T13:02:14.540Z,18.74
2017-04-26T13:03:24.511Z,18.16
2017-04-26T13:04:34.792Z,19.98
2017-04-26T13:05:45.069Z,22.69
2017-04-26T13:06:55.355Z,21.75
2017-04-26T13:08:05.639Z,18.78
2017-04-26T13:09:15.925Z,19.46
2017-04-26T13:10:26.206Z,19.84
2017-04-26T13:11:36.489Z,19.84
2017-04-26T13:12:46.777Z,20.51
2017-04-26T13:13:57.061Z,21.95
2017-04-26T13:15:07.350Z,20.89
2017-04-26T13:16:17.639Z,20.97
2017-04-26T13:17:27.925Z,22.02
2017-04-26T13:18:38.213Z,21.34
2017-04-26T13:19:48.502Z,21.14
2017-04-26T13:20:58.780Z,21.86
2017-04-26T13:22:09.068Z,23.37
2017-04-26T13:23:19.349Z,24.21
2017-04-26T13:24:29.626Z,25.85
2017-04-26T13:25:39.905Z,26.07
2017-04-26T13:26:50.183Z,26.09
2017-04-26T13:28:00.468Z,25.83
2017-04-26T13:29:10.461Z,25.18
2017-04-26T13:30:20.735Z,24.05
2017-04-26T13:31:30.736Z,24.37
2017-04-26T13:32:41.023Z,23.8
2017-04-26T13:33:51.297Z,22.94
2017-04-26T13:35:01.585Z,21.7
2017-04-26T13:36:11.869Z,18.82
2017-04-26T13:37:21.832Z,19.96
2017-04-26T13:38:32.112Z,18.15
2017-04-26T13:39:42.084Z,16.41
2017-04-26T13:40:52.358Z,16.31
2017-04-26T13:42:02.638Z,17.17
2017-04-26T13:43:12.612Z,17.64
2017-04-26T13:44:22.888Z,16.77
2017-04-26T13:45:33.177Z,15.7
2017-04-26T13:46:43.470Z,17.52
2017-04-26T13:47:53.757Z,17.8
2017-04-26T13:49:04.035Z,18.85
2017-04-26T13:50:14.317Z,20.85
2017-04-26T13:51:24.608Z,22.65
2017-04-26T13:52:34.884Z,24.63
2017-04-26T13:53:45.161Z,25.95
2017-04-26T13:54:55.439Z,26.98
2017-04-26T13:56:05.716Z,28.39
2017-04-26T13:57:15.999Z,29.43
2017-04-26T13:58:26.275Z,30.27
2017-04-26T13:59:36.548Z,31.01
2017-04-26T14:00:46.815Z,32.71
2017-04-26T14:01:57.093Z,33.74
2017-04-26T14:03:07.364Z,36.2
2017-04-26T14:04:16.689Z,36.87
2017-04-26T14:05:26.959Z,38.09
2017-04-26T14:06:37.224Z,38.64
2017-04-26T14:07:47.497Z,39.59
2017-04-26T14:08:57.761Z,40.14
2017-04-26T14:10:08.025Z,41.28
2017-04-26T14:11:18.294Z,42.12
2017-04-26T14:12:28.566Z,43.16
2017-04-26T14:13:38.512Z,44.12
2017-04-26T14:14:48.774Z,44.59
2017-04-26T14:15:59.037Z,44.76
2017-04-26T14:17:09.311Z,46.47
2017-04-26T14:18:19.254Z,46.56
2017-04-26T14:19:28.577Z,46.09
2017-04-26T14:20:38.846Z,44.38
2017-04-26T14:21:49.108Z,43.33
2017-04-26T14:22:59.373Z,44.35
2017-04-26T14:24:09.641Z,45.12
2017-04-26T14:25:19.587Z,46.16
2017-04-26T14:26:29.840Z,46.35
2017-04-26T14:27:40.095Z,46.45
2017-04-26T14:28:50.356Z,47.37
2017-04-26T14:30:00.304Z,48.51
2017-04-26T14:31:10.244Z,47.09
2017-04-26T14:32:20.503Z,49.08
2017-04-26T14:33:30.762Z,49.65
2017-04-26T14:34:41.029Z,49.46
2017-04-26T14:35:50.979Z,50.22
2017-04-26T14:37:00.923Z,51.9
2017-04-26T14:38:11.185Z,53.52
2017-04-26T14:39:21.447Z,53.99
2017-04-26T14:40:31.713Z,55.7
2017-04-26T14:41:41.973Z,56.27
2017-04-26T14:42:52.234Z,58.04
2017-04-26T14:44:02.494Z,58.04
2017-04-26T14:45:12.436Z,57.57
2017-04-26T14:46:22.699Z,58.04
2017-04-26T14:47:32.958Z,59.94
2017-04-26T14:48:43.217Z,60.22
2017-04-26T14:49:53.482Z,60.5
2017-04-26T14:51:03.737Z,60.7
2017-04-26T14:52:13.684Z,62.12
2017-04-26T14:53:23.961Z,62.02
2017-04-26T14:54:34.247Z,62.78
2017-04-26T14:55:44.507Z,62.59
2017-04-26T14:56:54.765Z,63.92
2017-04-26T14:58:05.018Z,63.45
2017-04-26T14:59:14.645Z,63.17
2017-04-26T15:00:24.903Z,60.5
2017-04-26T15:01:35.171Z,57.88
2017-04-26T15:02:45.431Z,57.46
2017-04-26T15:03:55.731Z,54.77
2017-04-26T15:05:05.680Z,52.51
2017-04-26T15:06:15.318Z,51.01
2017-04-26T15:07:25.586Z,47.92
2017-04-26T15:08:35.847Z,46.42